Time;durP1;ratioP1;P1;durP2;ratioP2;P2;SDS_P1;SDS_P2;PMS_P1;PMS_P2;Temp;Humidity;BMP_temperature;BMP_pressure;BME280_temperature;BME280_humidity;BME280_pressure;Samples;Min_cycle;Max_cycle;Signal;HPM_P1;HPM_P2
2023/05/19 00:00:47;;;;;;;6.20;2.03;;;13.00;51.20;;;;;;5024511;28;20509;-71
2023/05/19 00:03:33;;;;;;;4.57;2.10;;;13.00;50.90;;;;;;5020194;28;20445;-70
2023/05/19 00:06:23;;;;;;;6.37;2.10;;;12.90;50.70;;;;;;5023777;28;20509;-72
2023/05/19 00:09:09;;;;;;;7.03;2.53;;;12.90;50.10;;;;;;5024318;28;20936;-71
2023/05/19 00:11:57;;;;;;;7.93;2.10;;;12.90;49.80;;;;;;5028240;28;20513;-71
2023/05/19 00:14:43;;;;;;;5.90;2.40;;;12.90;50.60;;;;;;5026518;28;20966;-72
2023/05/19 00:17:28;;;;;;;7.77;2.27;;;12.90;50.40;;;;;;5024402;28;20445;-71
2023/05/19 00:20:14;;;;;;;8.27;1.87;;;12.90;50.40;;;;;;5029723;28;20397;-71
2023/05/19 00:23:00;;;;;;;7.03;2.60;;;12.90;50.20;;;;;;5013857;28;22151;-75
2023/05/19 00:25:45;;;;;;;6.23;2.40;;;12.80;51.10;;;;;;5024653;28;20484;-72
2023/05/19 00:28:32;;;;;;;4.70;2.30;;;12.80;50.10;;;;;;5033975;28;20408;-71
2023/05/19 00:31:18;;;;;;;5.03;2.37;;;12.80;50.20;;;;;;5031958;28;21131;-73
2023/05/19 00:34:03;;;;;;;12.77;2.20;;;12.80;50.20;;;;;;5023550;28;20425;-70
2023/05/19 00:36:49;;;;;;;4.50;1.97;;;12.80;48.70;;;;;;5026536;28;20477;-70
2023/05/19 00:39:35;;;;;;;6.40;2.47;;;12.80;49.40;;;;;;5032261;28;20453;-70
2023/05/19 00:42:21;;;;;;;9.10;2.30;;;12.80;49.70;;;;;;5037100;28;20437;-74
2023/05/19 00:45:09;;;;;;;7.00;2.80;;;12.80;49.50;;;;;;5032251;28;20488;-72
2023/05/19 00:47:54;;;;;;;5.67;2.00;;;12.80;50.20;;;;;;5019466;28;20420;-72
2023/05/19 00:50:40;;;;;;;8.03;2.93;;;12.80;50.30;;;;;;5035883;28;20432;-72
2023/05/19 00:53:26;;;;;;;5.53;2.03;;;12.80;49.80;;;;;;5016964;28;21006;-72
2023/05/19 00:56:11;;;;;;;6.33;2.17;;;12.80;50.00;;;;;;5034445;28;20474;-71
2023/05/19 00:58:58;;;;;;;5.90;1.53;;;12.70;50.90;;;;;;5031486;28;20887;-71
2023/05/19 01:01:47;;;;;;;8.17;2.40;;;12.80;51.00;;;;;;5038251;28;20501;-71
2023/05/19 01:04:34;;;;;;;5.47;2.37;;;12.70;51.10;;;;;;5019932;28;20502;-71
2023/05/19 01:07:20;;;;;;;5.07;2.27;;;12.60;51.30;;;;;;5037027;28;20829;-71
2023/05/19 01:10:06;;;;;;;6.80;2.43;;;12.60;50.30;;;;;;5032103;28;20429;-71
2023/05/19 01:12:52;;;;;;;8.73;2.60;;;12.60;51.20;;;;;;5024464;28;20785;-73
2023/05/19 01:15:50;;;;;;;9.30;2.90;;;12.60;51.70;;;;;;5028848;28;20445;-71
2023/05/19 01:18:47;;;;;;;8.87;2.33;;;12.50;52.20;;;;;;5030698;28;20470;-71
2023/05/19 01:21:50;;;;;;;7.00;2.17;;;12.50;51.90;;;;;;5023859;28;20570;-71
2023/05/19 01:25:07;;;;;;;7.93;2.10;;;12.40;52.80;;;;;;5022715;28;21036;-72
2023/05/19 01:28:31;;;;;;;6.43;1.90;;;12.30;53.80;;;;;;5026379;28;20487;-71
2023/05/19 01:31:22;;;;;;;15.90;2.63;;;12.20;53.80;;;;;;5027756;28;20524;-72
2023/05/19 01:34:11;;;;;;;4.53;1.87;;;12.20;53.70;;;;;;5018812;28;20449;-70
2023/05/19 01:37:00;;;;;;;4.43;2.03;;;12.30;53.20;;;;;;5022675;28;21126;-72
2023/05/19 01:39:46;;;;;;;11.13;2.13;;;12.20;53.50;;;;;;5032661;28;20537;-70
2023/05/19 01:42:36;;;;;;;5.93;2.33;;;12.20;54.50;;;;;;5029031;28;20575;-73
2023/05/19 01:45:22;;;;;;;5.50;1.90;;;12.20;55.90;;;;;;5022141;28;20567;-75
2023/05/19 01:48:09;;;;;;;5.70;2.13;;;12.10;55.40;;;;;;5023646;28;20532;-71
2023/05/19 01:50:56;;;;;;;5.63;2.00;;;12.20;55.20;;;;;;5037582;28;20475;-70
2023/05/19 01:53:41;;;;;;;15.73;2.00;;;12.20;54.90;;;;;;5030242;28;20571;-71
2023/05/19 01:56:46;;;;;;;4.60;2.10;;;12.10;56.00;;;;;;5028416;28;20480;-69
2023/05/19 01:59:41;;;;;;;7.77;1.90;;;12.00;56.60;;;;;;5042806;28;20414;-73
2023/05/19 02:02:38;;;;;;;7.70;2.40;;;12.00;56.80;;;;;;5024110;28;20420;-72
2023/05/19 02:05:34;;;;;;;8.90;2.43;;;12.00;57.80;;;;;;5029856;28;20965;-71
2023/05/19 02:08:26;;;;;;;6.67;2.80;;;12.00;57.10;;;;;;5027459;28;20475;-72
2023/05/19 02:11:18;;;;;;;4.43;2.27;;;12.00;56.30;;;;;;5046780;28;20523;-70
2023/05/19 02:14:11;;;;;;;4.70;2.10;;;12.00;56.40;;;;;;5026498;28;20910;-71
2023/05/19 02:16:58;;;;;;;6.33;2.77;;;11.90;56.90;;;;;;5028221;28;20945;-70
2023/05/19 02:19:43;;;;;;;4.83;2.37;;;11.90;57.90;;;;;;5037217;28;20430;-70
2023/05/19 02:22:30;;;;;;;9.67;2.80;;;11.80;57.80;;;;;;5024346;28;20476;-70
2023/05/19 02:25:15;;;;;;;7.43;2.47;;;11.70;60.10;;;;;;5036055;28;20425;-70
2023/05/19 02:28:01;;;;;;;6.63;2.37;;;11.70;60.30;;;;;;5038201;28;20753;-71
2023/05/19 02:30:46;;;;;;;10.93;2.30;;;11.70;60.40;;;;;;5025258;28;20404;-71
2023/05/19 02:33:32;;;;;;;4.60;2.03;;;11.60;61.30;;;;;;5024877;28;20503;-70
2023/05/19 02:36:17;;;;;;;8.03;2.67;;;11.40;63.80;;;;;;5033782;28;20485;-69
2023/05/19 02:39:04;;;;;;;6.50;2.37;;;11.30;65.60;;;;;;5024868;28;20838;-71
2023/05/19 02:41:49;;;;;;;7.00;2.17;;;11.20;66.00;;;;;;5031892;28;20437;-71
2023/05/19 02:44:35;;;;;;;6.13;2.30;;;11.20;67.40;;;;;;5021644;28;20418;-71
2023/05/19 02:47:21;;;;;;;7.57;2.53;;;11.20;68.50;;;;;;5028653;28;20436;-73
2023/05/19 02:50:07;;;;;;;5.93;2.20;;;11.00;68.60;;;;;;5031823;28;20453;-69
2023/05/19 02:52:53;;;;;;;5.40;2.20;;;11.00;68.20;;;;;;5024583;28;20484;-72
2023/05/19 02:55:40;;;;;;;5.00;2.50;;;11.00;69.60;;;;;;5032313;28;21270;-71
2023/05/19 02:58:25;;;;;;;4.93;2.30;;;10.90;71.80;;;;;;5027819;28;20452;-72
2023/05/19 03:01:11;;;;;;;5.20;2.33;;;10.80;71.60;;;;;;5031645;28;20884;-72
2023/05/19 03:03:56;;;;;;;9.30;2.90;;;10.80;72.90;;;;;;5025835;28;20416;-71
2023/05/19 03:06:44;;;;;;;5.60;2.07;;;10.80;74.10;;;;;;5028380;28;20468;-71
2023/05/19 03:09:30;;;;;;;8.33;2.47;;;10.80;72.30;;;;;;5025251;28;20521;-71
2023/05/19 03:12:16;;;;;;;3.87;1.90;;;10.70;72.30;;;;;;5022423;28;20491;-70
2023/05/19 03:15:05;;;;;;;7.57;2.37;;;10.70;74.50;;;;;;5030952;28;21094;-71
2023/05/19 03:17:51;;;;;;;8.13;2.73;;;10.70;74.00;;;;;;5022447;28;21183;-72
2023/05/19 03:20:37;;;;;;;5.73;2.30;;;10.60;74.30;;;;;;5041625;28;20436;-72
2023/05/19 03:23:22;;;;;;;5.87;2.80;;;10.50;75.20;;;;;;5028729;28;20417;-71
2023/05/19 03:26:07;;;;;;;6.20;2.70;;;10.50;75.20;;;;;;5034060;28;20493;-71
2023/05/19 03:28:54;;;;;;;8.90;2.33;;;10.60;73.90;;;;;;5025763;28;20440;-70
2023/05/19 03:31:40;;;;;;;4.83;2.30;;;10.70;73.70;;;;;;5027852;28;20915;-71
2023/05/19 03:34:25;;;;;;;6.80;2.17;;;10.70;74.70;;;;;;5032050;28;20449;-70
2023/05/19 03:37:11;;;;;;;5.80;2.40;;;10.80;73.20;;;;;;5025240;28;20651;-71
2023/05/19 03:39:57;;;;;;;5.80;2.60;;;10.80;72.40;;;;;;5028599;28;20423;-71
2023/05/19 03:42:42;;;;;;;7.10;2.17;;;10.70;72.30;;;;;;5022745;28;20541;-71
2023/05/19 03:45:29;;;;;;;5.33;2.30;;;10.80;70.50;;;;;;5027595;28;20444;-72
2023/05/19 03:48:14;;;;;;;8.27;2.60;;;10.80;70.90;;;;;;5026777;28;20535;-71
2023/05/19 03:51:00;;;;;;;12.00;2.37;;;10.80;71.80;;;;;;5023903;28;20417;-71
2023/05/19 03:53:45;;;;;;;4.67;2.10;;;10.90;72.10;;;;;;5027820;28;20437;-71
2023/05/19 03:56:31;;;;;;;5.90;1.93;;;10.60;72.20;;;;;;5029024;28;20474;-71
2023/05/19 03:59:16;;;;;;;7.17;2.07;;;10.60;73.80;;;;;;5023565;28;20605;-71
2023/05/19 04:02:04;;;;;;;6.53;2.57;;;10.60;75.30;;;;;;5018958;28;20950;-71
2023/05/19 04:04:50;;;;;;;4.90;2.60;;;10.40;76.10;;;;;;5019094;28;20447;-71
2023/05/19 04:07:35;;;;;;;6.57;2.43;;;10.30;78.50;;;;;;5023128;28;20462;-71
2023/05/19 04:10:21;;;;;;;7.77;3.20;;;10.30;79.50;;;;;;5021030;28;20904;-72
2023/05/19 04:13:06;;;;;;;5.23;2.67;;;10.30;80.00;;;;;;5030356;28;20425;-70
2023/05/19 04:15:52;;;;;;;7.60;2.70;;;10.20;80.40;;;;;;5028956;28;20481;-72
2023/05/19 04:18:39;;;;;;;4.80;2.30;;;10.20;81.90;;;;;;5032565;28;20534;-71
2023/05/19 04:21:25;;;;;;;5.23;2.50;;;10.30;82.20;;;;;;5018938;28;20435;-71
2023/05/19 04:24:10;;;;;;;10.13;3.07;;;10.30;82.60;;;;;;5026728;28;20971;-72
2023/05/19 04:26:56;;;;;;;4.90;1.90;;;10.40;82.10;;;;;;5029092;28;21182;-72
2023/05/19 04:29:41;;;;;;;7.00;2.60;;;10.50;80.80;;;;;;5027447;28;20535;-71
2023/05/19 04:32:28;;;;;;;9.80;2.43;;;10.50;79.70;;;;;;5024104;28;20469;-71
2023/05/19 04:35:16;;;;;;;11.43;2.50;;;10.60;78.30;;;;;;5030119;28;20419;-71
2023/05/19 04:38:01;;;;;;;7.13;2.30;;;10.80;75.40;;;;;;5026399;28;20489;-71
2023/05/19 04:40:48;;;;;;;5.70;2.10;;;10.90;75.90;;;;;;5025780;28;20443;-71
2023/05/19 04:43:34;;;;;;;7.03;2.73;;;11.10;73.40;;;;;;5031738;28;20425;-71
2023/05/19 04:46:22;;;;;;;9.90;2.67;;;11.20;73.70;;;;;;5027030;28;20515;-71
2023/05/19 04:49:11;;;;;;;6.03;2.60;;;11.30;73.50;;;;;;5026659;28;20447;-71
2023/05/19 04:51:57;;;;;;;5.53;2.20;;;11.40;71.80;;;;;;5021351;28;20450;-71
2023/05/19 04:54:43;;;;;;;8.73;2.27;;;11.50;71.70;;;;;;5025420;28;21046;-71
2023/05/19 04:57:28;;;;;;;4.87;1.77;;;11.50;69.40;;;;;;5037973;28;20940;-71
2023/05/19 05:00:15;;;;;;;9.23;2.30;;;11.60;70.60;;;;;;5026061;28;20441;-72
2023/05/19 05:03:04;;;;;;;6.07;2.33;;;11.70;70.90;;;;;;5029380;28;20452;-71
2023/05/19 05:05:49;;;;;;;4.73;1.97;;;11.60;70.40;;;;;;5023657;28;20432;-71
2023/05/19 05:08:38;;;;;;;5.47;2.20;;;11.70;69.10;;;;;;5026865;28;20449;-71
2023/05/19 05:11:25;;;;;;;5.10;3.07;;;11.70;67.80;;;;;;5025844;28;20477;-72
2023/05/19 05:14:11;;;;;;;9.17;2.43;;;11.80;67.90;;;;;;5026403;28;20786;-71
2023/05/19 05:16:57;;;;;;;6.63;2.30;;;11.80;67.90;;;;;;5026903;28;21022;-71
2023/05/19 05:19:43;;;;;;;8.37;2.03;;;11.90;67.40;;;;;;5025397;28;20551;-72
2023/05/19 05:22:29;;;;;;;3.43;2.00;;;12.00;65.10;;;;;;5028053;28;20440;-71
2023/05/19 05:25:17;;;;;;;5.10;2.23;;;12.10;66.10;;;;;;5023458;28;20449;-71
2023/05/19 05:28:03;;;;;;;7.17;2.80;;;12.20;64.80;;;;;;5037298;28;20413;-71
2023/05/19 05:30:49;;;;;;;11.20;2.80;;;12.20;64.00;;;;;;5029801;28;20541;-72
2023/05/19 05:33:35;;;;;;;5.30;2.60;;;12.20;64.70;;;;;;5039482;28;20414;-71
2023/05/19 05:36:20;;;;;;;6.77;2.40;;;12.30;64.60;;;;;;5034119;28;20444;-70
2023/05/19 05:39:06;;;;;;;5.27;1.90;;;12.40;64.40;;;;;;5036059;28;20445;-71
2023/05/19 05:41:53;;;;;;;7.33;2.10;;;12.50;64.20;;;;;;5032565;28;20446;-71
2023/05/19 05:44:38;;;;;;;6.70;2.20;;;12.50;63.70;;;;;;5030208;28;20441;-70
2023/05/19 05:47:24;;;;;;;10.50;2.60;;;12.60;64.10;;;;;;5038503;28;21045;-70
2023/05/19 05:50:10;;;;;;;6.03;2.40;;;12.70;64.50;;;;;;5024483;28;20414;-71
2023/05/19 05:52:59;;;;;;;6.87;3.13;;;12.90;63.60;;;;;;5030557;28;20777;-71
2023/05/19 05:55:46;;;;;;;9.90;2.30;;;13.00;62.90;;;;;;5025807;28;20510;-71
2023/05/19 05:58:33;;;;;;;8.70;2.23;;;13.00;62.60;;;;;;5032991;28;20529;-70
2023/05/19 06:01:19;;;;;;;4.70;2.40;;;13.00;63.10;;;;;;5022522;28;20430;-70
2023/05/19 06:04:05;;;;;;;9.50;2.53;;;13.10;62.30;;;;;;5041524;28;20477;-70
2023/05/19 06:06:51;;;;;;;11.30;2.30;;;13.10;62.70;;;;;;5035114;28;20469;-70
2023/05/19 06:09:36;;;;;;;5.97;2.60;;;13.20;63.10;;;;;;5028766;28;20806;-71
2023/05/19 06:12:22;;;;;;;10.00;2.57;;;13.20;62.60;;;;;;5025095;28;20490;-72
2023/05/19 06:15:10;;;;;;;6.43;2.13;;;13.30;61.50;;;;;;5031267;28;20421;-70
2023/05/19 06:17:56;;;;;;;6.30;2.70;;;13.30;62.80;;;;;;5037060;28;20791;-71
2023/05/19 06:20:41;;;;;;;7.67;2.30;;;13.50;59.60;;;;;;5035176;28;20425;-71
2023/05/19 06:23:28;;;;;;;4.50;2.37;;;13.50;60.80;;;;;;5035351;28;20402;-70
2023/05/19 06:26:14;;;;;;;12.83;2.13;;;13.60;61.90;;;;;;5030379;28;20530;-71
2023/05/19 06:28:59;;;;;;;8.50;2.60;;;13.70;59.90;;;;;;5028304;28;20426;-71
2023/05/19 06:31:46;;;;;;;3.30;1.97;;;13.90;60.30;;;;;;5032751;28;20782;-71
2023/05/19 06:34:31;;;;;;;8.07;2.03;;;14.00;58.10;;;;;;5038625;28;20435;-71
2023/05/19 06:37:18;;;;;;;5.53;2.30;;;14.10;60.10;;;;;;5025800;28;20580;-71
2023/05/19 06:40:04;;;;;;;5.97;2.20;;;14.30;59.40;;;;;;5030362;28;20485;-71
2023/05/19 06:42:50;;;;;;;8.13;2.53;;;14.30;56.20;;;;;;5039345;28;20535;-71
2023/05/19 06:45:35;;;;;;;5.80;2.40;;;14.40;58.20;;;;;;5038054;28;20463;-71
2023/05/19 06:48:22;;;;;;;6.47;2.50;;;14.50;55.90;;;;;;5030118;28;20425;-71
2023/05/19 06:51:09;;;;;;;6.73;2.10;;;14.50;55.60;;;;;;5032612;28;20419;-71
2023/05/19 06:53:54;;;;;;;5.57;2.33;;;14.60;56.00;;;;;;5033189;28;20408;-70
2023/05/19 06:56:39;;;;;;;7.20;2.30;;;14.60;55.10;;;;;;5031230;28;20443;-70
2023/05/19 06:59:25;;;;;;;8.20;2.47;;;14.70;56.40;;;;;;5022462;28;21088;-71
2023/05/19 07:02:10;;;;;;;6.50;2.33;;;14.80;52.10;;;;;;5030261;28;20592;-71
2023/05/19 07:04:57;;;;;;;12.63;2.27;;;14.80;50.30;;;;;;5037153;28;20472;-71
2023/05/19 07:07:43;;;;;;;10.90;2.60;;;14.90;53.90;;;;;;5023498;28;20580;-71
2023/05/19 07:10:28;;;;;;;5.27;2.30;;;14.90;52.30;;;;;;5021145;28;20419;-71
2023/05/19 07:13:14;;;;;;;6.63;2.60;;;15.00;52.00;;;;;;5025304;28;20447;-71
2023/05/19 07:16:00;;;;;;;5.80;2.40;;;15.10;51.10;;;;;;5028672;28;20513;-71
2023/05/19 07:18:45;;;;;;;4.73;2.20;;;15.10;53.10;;;;;;5028906;28;20446;-71
2023/05/19 07:21:32;;;;;;;4.20;2.03;;;15.10;51.00;;;;;;5021128;28;20401;-72
2023/05/19 07:24:20;;;;;;;6.53;2.77;;;15.20;50.60;;;;;;5028429;28;20401;-71
2023/05/19 07:27:05;;;;;;;7.60;2.27;;;15.20;50.40;;;;;;5037362;28;20422;-71
2023/05/19 07:29:50;;;;;;;4.50;2.33;;;15.30;49.10;;;;;;5019307;28;20419;-71
2023/05/19 07:32:36;;;;;;;6.20;2.13;;;15.30;48.30;;;;;;5046929;28;20413;-71
2023/05/19 07:35:22;;;;;;;5.10;2.00;;;15.20;48.20;;;;;;5030975;28;20409;-71
2023/05/19 07:38:09;;;;;;;5.87;2.73;;;15.20;49.00;;;;;;5031055;28;21166;-71
2023/05/19 07:40:54;;;;;;;7.70;2.70;;;15.20;48.20;;;;;;5033872;28;20913;-71
2023/05/19 07:43:40;;;;;;;6.67;2.07;;;15.30;48.30;;;;;;5032525;28;20425;-72
2023/05/19 07:46:25;;;;;;;7.70;2.17;;;15.40;49.20;;;;;;5024596;28;20463;-71
2023/05/19 07:49:11;;;;;;;5.20;1.83;;;15.50;44.50;;;;;;5023168;28;20441;-71
2023/05/19 07:51:57;;;;;;;12.10;2.83;;;15.60;38.90;;;;;;5028432;28;20429;-71
2023/05/19 07:54:44;;;;;;;11.17;3.20;;;15.60;40.00;;;;;;5030168;28;20418;-71
2023/05/19 07:57:29;;;;;;;14.27;2.77;;;15.70;42.90;;;;;;5027682;28;21043;-71
2023/05/19 08:00:16;;;;;;;4.23;1.80;;;15.80;44.00;;;;;;5034979;28;20474;-70
2023/05/19 08:03:02;;;;;;;5.87;1.90;;;15.90;38.50;;;;;;5022926;28;20557;-71
2023/05/19 08:05:47;;;;;;;6.17;2.00;;;16.10;41.40;;;;;;5052981;28;20422;-70
2023/05/19 08:08:33;;;;;;;6.70;2.17;;;16.30;40.90;;;;;;5026264;28;20573;-71
2023/05/19 08:11:20;;;;;;;7.13;1.80;;;16.30;39.00;;;;;;5030777;28;20946;-70
2023/05/19 08:14:05;;;;;;;5.10;2.13;;;16.50;35.90;;;;;;5041091;28;20824;-71
2023/05/19 08:16:51;;;;;;;3.67;2.00;;;16.50;37.10;;;;;;5032955;28;20566;-71
2023/05/19 08:19:36;;;;;;;11.37;2.20;;;16.60;36.00;;;;;;5022824;28;20497;-70
2023/05/19 08:22:22;;;;;;;7.20;2.67;;;16.70;37.20;;;;;;5036129;28;20486;-70
2023/05/19 08:25:08;;;;;;;7.43;2.83;;;16.80;37.10;;;;;;5031552;28;20428;-70
2023/05/19 08:27:55;;;;;;;9.00;2.10;;;16.90;38.20;;;;;;5032561;28;20512;-70
2023/05/19 08:30:40;;;;;;;10.43;2.43;;;16.90;36.10;;;;;;5038201;28;20514;-71
2023/05/19 08:33:26;;;;;;;6.50;2.03;;;16.90;34.10;;;;;;5037249;28;20435;-70
2023/05/19 08:36:11;;;;;;;6.83;1.90;;;17.00;37.60;;;;;;5027319;28;20447;-71
2023/05/19 08:38:57;;;;;;;5.83;2.73;;;17.00;36.40;;;;;;5034413;28;21063;-70
2023/05/19 08:41:42;;;;;;;4.73;2.10;;;17.00;36.20;;;;;;5032442;28;20447;-71
2023/05/19 08:44:30;;;;;;;5.27;2.00;;;17.00;35.60;;;;;;5041695;28;20435;-71
2023/05/19 08:47:15;;;;;;;5.80;2.10;;;16.90;31.10;;;;;;5024481;28;20545;-70
2023/05/19 08:50:06;;;;;;;10.33;2.90;;;16.90;33.80;;;;;;5033274;28;20447;-70
2023/05/19 08:52:53;;;;;;;7.17;2.40;;;16.90;35.10;;;;;;5033031;28;20430;-71
2023/05/19 08:55:46;;;;;;;5.20;2.17;;;16.90;35.60;;;;;;5023313;28;20530;-70
2023/05/19 08:58:33;;;;;;;7.80;2.33;;;16.90;36.30;;;;;;5025772;28;20946;-72
2023/05/19 09:01:22;;;;;;;6.40;2.30;;;16.90;31.60;;;;;;5035067;28;20445;-69
2023/05/19 09:04:07;;;;;;;6.07;2.43;;;16.90;31.40;;;;;;5035751;28;20447;-74
2023/05/19 09:06:53;;;;;;;17.37;3.70;;;17.00;34.30;;;;;;5022225;28;20442;-70
2023/05/19 09:09:41;;;;;;;5.27;2.20;;;17.00;31.70;;;;;;5029880;28;20430;-70
2023/05/19 09:12:27;;;;;;;7.60;2.10;;;17.10;35.10;;;;;;5043836;28;20434;-70
2023/05/19 09:15:13;;;;;;;9.80;3.20;;;17.30;36.70;;;;;;5036774;28;20443;-70
2023/05/19 09:18:07;;;;;;;5.90;2.43;;;17.40;36.80;;;;;;5025883;28;20456;-70
2023/05/19 09:20:59;;;;;;;6.20;2.00;;;17.60;38.70;;;;;;5026142;28;20614;-69
2023/05/19 09:23:47;;;;;;;5.50;2.27;;;17.70;30.70;;;;;;5025102;28;20517;-70
2023/05/19 09:26:37;;;;;;;6.50;2.47;;;17.90;30.90;;;;;;5031084;28;20469;-71
2023/05/19 09:29:23;;;;;;;9.53;2.50;;;17.90;31.20;;;;;;5021137;28;20806;-72
2023/05/19 09:32:08;;;;;;;5.53;1.93;;;17.90;30.90;;;;;;5043872;28;20445;-70
2023/05/19 09:34:55;;;;;;;5.90;2.43;;;17.90;33.30;;;;;;5028607;28;20523;-72
2023/05/19 09:37:41;;;;;;;10.57;2.47;;;17.80;31.20;;;;;;5028309;28;20445;-70
2023/05/19 09:40:28;;;;;;;3.23;1.73;;;17.80;32.10;;;;;;5026396;28;20505;-71
2023/05/19 09:43:14;;;;;;;6.60;2.30;;;17.80;31.70;;;;;;5033216;28;20458;-72
2023/05/19 09:46:00;;;;;;;9.73;2.70;;;17.80;32.60;;;;;;5022465;28;20513;-73
2023/05/19 09:48:46;;;;;;;10.33;2.03;;;17.70;31.40;;;;;;5041741;28;20445;-72
2023/05/19 09:51:34;;;;;;;8.83;2.80;;;17.70;30.70;;;;;;5044181;28;20442;-71
2023/05/19 09:54:22;;;;;;;6.80;2.40;;;17.70;29.70;;;;;;5027717;28;20868;-70
2023/05/19 09:57:07;;;;;;;7.63;2.30;;;17.80;34.20;;;;;;5025680;28;20528;-70
2023/05/19 09:59:55;;;;;;;5.23;2.30;;;18.00;31.80;;;;;;5024964;28;20530;-71
2023/05/19 10:02:43;;;;;;;11.63;2.70;;;18.00;31.00;;;;;;5027369;28;20501;-71
2023/05/19 10:05:29;;;;;;;5.97;2.40;;;18.00;27.90;;;;;;5042188;28;20507;-70
2023/05/19 10:08:17;;;;;;;6.97;2.40;;;18.10;27.90;;;;;;5026516;28;20905;-72
2023/05/19 10:11:03;;;;;;;5.47;1.97;;;18.10;30.00;;;;;;5024828;28;20460;-71
2023/05/19 10:13:51;;;;;;;4.60;2.60;;;18.10;27.80;;;;;;5026797;28;20525;-72
2023/05/19 10:16:37;;;;;;;6.00;2.40;;;18.20;33.20;;;;;;5020415;28;20481;-71
2023/05/19 10:19:24;;;;;;;10.03;3.17;;;18.30;29.60;;;;;;5036100;28;21048;-72
2023/05/19 10:22:09;;;;;;;5.90;2.40;;;18.60;33.20;;;;;;5025059;28;20461;-72
2023/05/19 10:24:56;;;;;;;8.17;2.57;;;18.90;30.60;;;;;;5021124;28;20876;-70
2023/05/19 10:27:45;;;;;;;8.93;2.80;;;19.10;29.40;;;;;;5021086;28;20825;-71
2023/05/19 10:30:35;;;;;;;5.27;2.13;;;19.30;27.50;;;;;;5037741;28;20441;-72
2023/05/19 10:33:23;;;;;;;8.20;2.10;;;19.20;27.50;;;;;;5032903;28;20515;-70
2023/05/19 10:36:34;;;;;;;4.30;2.23;;;19.00;27.10;;;;;;5024992;28;20472;-70
2023/05/19 10:39:26;;;;;;;8.80;3.13;;;18.90;28.20;;;;;;5037058;28;20811;-71
2023/05/19 10:42:16;;;;;;;7.32;2.50;;;19.00;30.30;;;;;;5026935;28;20512;-71
2023/05/19 10:45:10;;;;;;;6.13;2.67;;;19.30;27.60;;;;;;5035797;28;20204;-70
2023/05/19 10:47:55;;;;;;;10.13;3.20;;;19.30;28.10;;;;;;5018593;28;20457;-70
2023/05/19 10:50:43;;;;;;;9.27;2.43;;;19.40;28.90;;;;;;5037475;28;20414;-70
2023/05/19 10:53:31;;;;;;;6.77;2.60;;;19.50;27.90;;;;;;5027407;28;20423;-69
2023/05/19 10:56:32;;;;;;;4.73;2.73;;;19.50;26.00;;;;;;5021085;28;20480;-69
2023/05/19 10:59:40;;;;;;;9.10;2.57;;;19.30;27.60;;;;;;5023056;28;20451;-70
2023/05/19 11:02:38;;;;;;;3.37;1.90;;;19.40;29.00;;;;;;5023083;28;20970;-69
2023/05/19 11:05:29;;;;;;;5.97;1.93;;;19.40;24.60;;;;;;5021603;28;20930;-70
2023/05/19 11:08:16;;;;;;;6.67;2.03;;;19.30;25.80;;;;;;5023986;28;20415;-71
2023/05/19 11:11:12;;;;;;;8.50;3.20;;;19.30;27.40;;;;;;5023141;28;20586;-70
2023/05/19 11:14:00;;;;;;;7.33;2.57;;;19.20;24.00;;;;;;5029582;28;20552;-69
2023/05/19 11:16:49;;;;;;;9.00;2.80;;;19.20;25.70;;;;;;5018412;28;20451;-70
2023/05/19 11:19:35;;;;;;;4.93;2.43;;;19.20;26.50;;;;;;5022939;28;20455;-70
2023/05/19 11:22:24;;;;;;;6.73;2.93;;;19.30;26.50;;;;;;5021263;28;21204;-70
2023/05/19 11:25:10;;;;;;;6.47;2.60;;;19.60;27.60;;;;;;5018592;28;20923;-71
2023/05/19 11:27:56;;;;;;;5.87;2.10;;;19.80;25.30;;;;;;5031486;28;20443;-72
2023/05/19 11:30:43;;;;;;;7.53;2.50;;;19.80;25.00;;;;;;5038800;28;20593;-71
2023/05/19 11:33:32;;;;;;;7.57;2.40;;;19.80;24.90;;;;;;5031587;28;20816;-70
2023/05/19 11:36:17;;;;;;;6.27;2.50;;;19.90;26.40;;;;;;5022311;28;20473;-69
2023/05/19 11:39:04;;;;;;;10.13;2.57;;;20.20;29.90;;;;;;5023341;28;20418;-70
2023/05/19 11:41:51;;;;;;;5.80;2.10;;;20.40;26.10;;;;;;5025889;28;20451;-70
2023/05/19 11:44:37;;;;;;;5.23;2.20;;;20.50;25.80;;;;;;5032069;28;20487;-71
2023/05/19 11:47:22;;;;;;;6.23;2.67;;;20.50;25.80;;;;;;5035471;28;20471;-73
2023/05/19 11:50:11;;;;;;;8.53;2.80;;;20.40;24.80;;;;;;5042110;28;21211;-70
2023/05/19 11:52:56;;;;;;;5.33;2.13;;;20.40;26.00;;;;;;5025357;28;20568;-71
2023/05/19 11:55:43;;;;;;;7.20;2.67;;;20.40;24.30;;;;;;5023624;28;21025;-70
2023/05/19 11:58:28;;;;;;;7.97;2.37;;;20.30;24.70;;;;;;5022175;28;20560;-72
2023/05/19 12:01:14;;;;;;;4.10;1.97;;;20.30;25.40;;;;;;5025302;28;20826;-69
2023/05/19 12:03:59;;;;;;;7.27;2.80;;;20.30;25.70;;;;;;5025354;28;20978;-72
2023/05/19 12:06:48;;;;;;;5.43;2.03;;;20.10;24.50;;;;;;5031229;28;20461;-72
2023/05/19 12:09:34;;;;;;;6.00;2.50;;;20.00;26.40;;;;;;5019424;28;20456;-71
2023/05/19 12:12:20;;;;;;;6.70;2.33;;;20.00;27.50;;;;;;5030188;28;20496;-70
2023/05/19 12:15:07;;;;;;;6.00;2.40;;;20.20;25.80;;;;;;5022827;28;20543;-72
2023/05/19 12:17:57;;;;;;;4.77;2.23;;;20.30;26.70;;;;;;5032298;28;20424;-74
2023/05/19 12:20:43;;;;;;;5.47;1.93;;;20.30;26.70;;;;;;5033782;28;20524;-70
2023/05/19 12:23:30;;;;;;;8.23;2.20;;;20.30;26.60;;;;;;5028172;28;20571;-70
2023/05/19 12:26:18;;;;;;;5.60;2.43;;;20.20;25.70;;;;;;5021249;28;20607;-70
2023/05/19 12:29:05;;;;;;;4.80;1.90;;;20.10;26.50;;;;;;5041601;28;20447;-70
2023/05/19 12:31:51;;;;;;;11.20;2.10;;;20.10;27.20;;;;;;5025179;28;20591;-70
2023/05/19 12:34:37;;;;;;;5.37;2.20;;;20.10;28.00;;;;;;5022009;28;20512;-71
2023/05/19 12:37:26;;;;;;;7.23;2.37;;;20.10;25.10;;;;;;5026629;28;20464;-73
2023/05/19 12:40:16;;;;;;;4.27;2.20;;;20.00;27.40;;;;;;5024663;28;20535;-70
2023/05/19 12:43:01;;;;;;;7.30;2.17;;;19.90;26.40;;;;;;5021322;28;20648;-71
2023/05/19 12:45:47;;;;;;;4.93;2.20;;;19.80;26.20;;;;;;5035598;28;20492;-72
2023/05/19 12:48:33;;;;;;;8.23;2.37;;;19.70;26.90;;;;;;5023642;28;20952;-71
2023/05/19 12:51:18;;;;;;;4.30;2.13;;;19.60;27.80;;;;;;5033320;28;20472;-70
2023/05/19 12:54:04;;;;;;;4.33;2.43;;;19.50;28.00;;;;;;5031341;28;20444;-70
2023/05/19 12:56:51;;;;;;;7.80;1.97;;;19.50;30.40;;;;;;5014335;28;20508;-70
2023/05/19 12:59:36;;;;;;;4.93;2.00;;;19.40;28.10;;;;;;5032558;28;20424;-71
2023/05/19 13:02:23;;;;;;;7.60;2.07;;;19.30;29.00;;;;;;5024120;28;20404;-70
2023/05/19 13:05:09;;;;;;;6.10;2.70;;;19.30;29.20;;;;;;5014202;28;20971;-74
2023/05/19 13:07:56;;;;;;;5.83;2.43;;;19.20;30.60;;;;;;5033688;28;20423;-70
2023/05/19 13:10:43;;;;;;;9.53;2.30;;;19.20;30.90;;;;;;5034137;28;20428;-71
2023/05/19 13:13:30;;;;;;;6.13;2.00;;;19.30;29.90;;;;;;5033668;28;20673;-70
2023/05/19 13:16:15;;;;;;;5.77;2.20;;;19.50;30.80;;;;;;5040004;28;20467;-73
2023/05/19 13:19:01;;;;;;;5.20;2.90;;;19.60;31.60;;;;;;5040122;28;20570;-70
2023/05/19 13:21:48;;;;;;;8.60;2.60;;;19.80;31.20;;;;;;5033622;28;20475;-70
2023/05/19 13:24:33;;;;;;;6.80;2.37;;;20.00;30.30;;;;;;5034586;28;20531;-70
2023/05/19 13:27:19;;;;;;;6.30;2.47;;;20.10;29.40;;;;;;5032941;28;20801;-71
2023/05/19 13:30:07;;;;;;;7.70;1.80;;;20.40;28.90;;;;;;5033467;28;20900;-70
2023/05/19 13:32:53;;;;;;;5.20;2.47;;;20.60;29.10;;;;;;5033672;28;20440;-70
2023/05/19 13:35:38;;;;;;;5.60;2.00;;;20.70;28.20;;;;;;5025376;28;20559;-72
2023/05/19 13:38:24;;;;;;;5.03;2.37;;;20.80;28.10;;;;;;5027959;28;20576;-72
2023/05/19 13:41:09;;;;;;;3.90;1.97;;;21.00;27.20;;;;;;5022321;28;20470;-70
2023/05/19 13:43:57;;;;;;;7.37;2.47;;;21.20;27.30;;;;;;5032383;28;20580;-75
2023/05/19 13:46:43;;;;;;;6.17;2.27;;;21.00;26.80;;;;;;5025993;28;20472;-70
2023/05/19 13:49:29;;;;;;;6.57;2.10;;;20.90;27.10;;;;;;5029437;28;20437;-70
2023/05/19 13:52:15;;;;;;;4.27;1.90;;;20.80;27.10;;;;;;5024695;28;20445;-71
2023/05/19 13:55:00;;;;;;;4.83;2.30;;;20.80;27.10;;;;;;5023703;28;21514;-73
2023/05/19 13:57:46;;;;;;;6.90;2.03;;;20.70;27.10;;;;;;5023835;28;20967;-70
2023/05/19 14:00:31;;;;;;;7.10;2.30;;;20.50;26.80;;;;;;5048481;28;20549;-71
2023/05/19 14:03:18;;;;;;;4.80;2.07;;;20.40;26.70;;;;;;5032262;28;21088;-70
2023/05/19 14:06:04;;;;;;;3.33;2.07;;;20.40;26.80;;;;;;5025805;28;20472;-71
2023/05/19 14:08:49;;;;;;;3.23;1.90;;;20.40;26.70;;;;;;5036010;28;20549;-73
2023/05/19 14:11:35;;;;;;;4.63;2.20;;;20.40;25.70;;;;;;5030500;28;20449;-71
2023/05/19 14:14:20;;;;;;;5.30;2.07;;;20.40;26.70;;;;;;5039331;28;20514;-70
2023/05/19 14:17:06;;;;;;;3.20;2.00;;;20.20;26.60;;;;;;5025367;28;20463;-71
2023/05/19 14:19:53;;;;;;;5.87;2.30;;;20.10;26.50;;;;;;5036746;28;20448;-70
2023/05/19 14:22:38;;;;;;;6.03;2.23;;;20.00;28.10;;;;;;5032663;28;20472;-71
2023/05/19 14:25:24;;;;;;;11.20;2.47;;;19.90;29.20;;;;;;5029253;28;20448;-75
2023/05/19 14:28:10;;;;;;;5.10;2.40;;;19.80;29.20;;;;;;5034671;28;20433;-70